Time;durP1;ratioP1;P1;durP2;ratioP2;P2;SDS_P1;SDS_P2;PMS_P1;PMS_P2;Temp;Humidity;BMP_temperature;BMP_pressure;BME280_temperature;BME280_humidity;BME280_pressure;Samples;Min_cycle;Max_cycle;Signal;HPM_P1;HPM_P2
2021/08/28 00:00:50;;;;;;;2.13;1.60;;;;;;;10.96;100.00;100738.34;4989129;28;20170;-83
2021/08/28 00:03:21;;;;;;;2.50;1.65;;;;;;;10.96;100.00;100741.84;4987958;28;20046;-82
2021/08/28 00:05:48;;;;;;;6.32;2.28;;;;;;;11.03;100.00;100732.03;4990275;28;20641;-83
2021/08/28 00:08:16;;;;;;;3.17;1.77;;;;;;;10.93;100.00;100741.94;5001281;28;20437;-84
2021/08/28 00:10:43;;;;;;;3.47;1.80;;;;;;;10.82;100.00;100733.34;4994401;28;20639;-83
2021/08/28 00:13:11;;;;;;;2.20;2.00;;;;;;;10.82;100.00;100735.09;4972163;28;20070;-84
2021/08/28 00:15:37;;;;;;;3.42;2.10;;;;;;;10.78;100.00;100739.59;4976657;28;20149;-83
2021/08/28 00:18:04;;;;;;;2.90;1.98;;;;;;;10.83;100.00;100737.72;4976785;28;20080;-84
2021/08/28 00:20:33;;;;;;;2.10;1.90;;;;;;;10.82;100.00;100745.69;4992979;28;20105;-85
2021/08/28 00:23:03;;;;;;;2.03;1.83;;;;;;;10.73;100.00;100744.09;4986619;28;20049;-86
2021/08/28 00:25:30;;;;;;;2.40;1.60;;;;;;;10.68;100.00;100740.69;4971904;28;20096;-84
2021/08/28 00:27:57;;;;;;;2.85;1.88;;;;;;;10.69;100.00;100740.66;4990561;28;20050;-84
2021/08/28 00:30:27;;;;;;;2.05;1.73;;;;;;;10.64;100.00;100741.63;4989321;28;20042;-85
2021/08/28 00:32:58;;;;;;;2.30;1.60;;;;;;;10.64;100.00;100737.22;4983597;28;20041;-84
2021/08/28 00:35:24;;;;;;;2.30;1.83;;;;;;;10.68;100.00;100744.19;4974662;28;20046;-84
2021/08/28 00:37:51;;;;;;;2.40;1.90;;;;;;;10.71;100.00;100741.47;4987786;28;20044;-84
2021/08/28 00:40:18;;;;;;;3.25;2.08;;;;;;;10.74;100.00;100740.53;4973858;28;20038;-84
2021/08/28 00:42:54;;;;;;;4.82;2.08;;;;;;;10.75;100.00;100744.91;4969234;28;20049;-84
2021/08/28 00:45:28;;;;;;;2.55;2.00;;;;;;;10.78;100.00;100746.66;4974282;28;20049;-84
2021/08/28 00:47:56;;;;;;;2.30;1.90;;;;;;;10.75;100.00;100741.41;4987256;28;20046;-84
2021/08/28 00:50:26;;;;;;;3.47;2.47;;;;;;;10.84;100.00;100739.44;4966214;28;20042;-84
2021/08/28 00:52:54;;;;;;;3.70;2.10;;;;;;;10.84;100.00;100742.09;4973846;28;20041;-84
2021/08/28 00:55:25;;;;;;;2.70;2.10;;;;;;;10.88;100.00;100741.16;4990417;28;20049;-85
2021/08/28 00:57:53;;;;;;;3.22;2.13;;;;;;;11.03;100.00;100739.97;4981639;28;20567;-85
2021/08/28 01:00:20;;;;;;;2.58;2.00;;;;;;;11.06;100.00;100747.81;4974156;28;20811;-85
2021/08/28 01:02:49;;;;;;;4.95;2.80;;;;;;;11.12;100.00;100753.00;4981226;28;20038;-84
2021/08/28 01:05:21;;;;;;;2.75;2.08;;;;;;;11.11;100.00;100751.25;4977480;28;20049;-84
2021/08/28 01:08:21;;;;;;;3.88;1.83;;;;;;;11.09;100.00;100749.53;4990765;28;20045;-85
2021/08/28 01:10:59;;;;;;;4.18;1.98;;;;;;;11.11;100.00;100756.53;4977856;28;20152;-84
2021/08/28 01:13:30;;;;;;;4.82;2.05;;;;;;;11.13;100.00;100749.44;5004161;28;20042;-84
2021/08/28 01:16:03;;;;;;;3.83;2.15;;;;;;;11.18;100.00;100755.50;4968476;28;20046;-84
2021/08/28 01:18:32;;;;;;;3.05;1.80;;;;;;;11.26;100.00;100756.19;4988102;28;20105;-85
2021/08/28 01:21:57;;;;;;;2.30;2.08;;;;;;;11.31;100.00;100756.09;4989466;28;20045;-84
2021/08/28 01:24:23;;;;;;;3.67;2.70;;;;;;;11.40;100.00;100760.31;4980490;28;20502;-83
2021/08/28 01:26:54;;;;;;;7.13;4.57;;;;;;;11.44;100.00;100764.66;4994191;28;20034;-82
2021/08/28 01:29:23;;;;;;;6.40;4.55;;;;;;;11.40;100.00;100761.19;4989322;28;20048;-83
2021/08/28 01:31:53;;;;;;;7.45;4.75;;;;;;;11.48;100.00;100767.16;5002721;28;20042;-83
2021/08/28 01:34:20;;;;;;;7.70;5.30;;;;;;;11.57;100.00;100771.38;4978596;28;20058;-84
2021/08/28 01:36:48;;;;;;;8.32;5.30;;;;;;;11.59;100.00;100774.88;5008899;28;20049;-83
2021/08/28 01:39:15;;;;;;;7.90;5.35;;;;;;;11.63;100.00;100768.59;4981722;28;20152;-83
2021/08/28 01:41:43;;;;;;;5.82;4.05;;;;;;;11.63;100.00;100773.91;4983817;28;20574;-84
2021/08/28 01:44:11;;;;;;;6.00;3.75;;;;;;;11.62;100.00;100766.00;4988917;28;20129;-85
2021/08/28 01:46:38;;;;;;;5.70;4.20;;;;;;;11.68;100.00;100769.34;4969820;28;20042;-83
2021/08/28 01:49:07;;;;;;;10.25;5.13;;;;;;;11.67;100.00;100764.97;4971291;28;20037;-82
2021/08/28 01:51:34;;;;;;;7.13;5.03;;;;;;;11.75;100.00;100776.25;4985788;28;20053;-83
2021/08/28 01:54:01;;;;;;;11.07;5.57;;;;;;;11.73;100.00;100770.13;4991251;28;20069;-83
2021/08/28 01:56:28;;;;;;;7.22;4.80;;;;;;;11.77;100.00;100771.81;4998229;28;20103;-82
2021/08/28 01:58:57;;;;;;;7.78;5.75;;;;;;;11.91;100.00;100774.16;4973586;28;20053;-83
2021/08/28 02:01:24;;;;;;;7.43;5.43;;;;;;;11.86;100.00;100764.59;4992097;28;20683;-83
2021/08/28 02:03:53;;;;;;;13.70;6.97;;;;;;;11.77;100.00;100761.22;4979426;28;20785;-83
2021/08/28 02:06:44;;;;;;;8.55;6.13;;;;;;;11.78;100.00;100762.09;4989129;28;20324;-83
2021/08/28 02:09:41;;;;;;;11.57;6.70;;;;;;;11.81;100.00;100764.69;4975669;28;20049;-83
2021/08/28 02:12:26;;;;;;;9.73;5.72;;;;;;;11.83;100.00;100765.50;4963621;28;20046;-83
2021/08/28 02:14:57;;;;;;;8.73;6.38;;;;;;;11.88;100.00;100761.00;4990344;28;20049;-83
2021/08/28 02:17:28;;;;;;;14.32;6.63;;;;;;;11.85;100.00;100761.03;4985226;28;20042;-83
2021/08/28 02:20:03;;;;;;;8.88;5.93;;;;;;;11.89;100.00;100753.91;4973981;28;20558;-84
2021/08/28 02:22:34;;;;;;;8.45;6.80;;;;;;;11.95;100.00;100745.84;4987188;28;20051;-84
2021/08/28 02:25:53;;;;;;;10.55;6.88;;;;;;;11.98;100.00;100748.41;4993387;28;20045;-83
2021/08/28 02:28:28;;;;;;;8.32;5.95;;;;;;;12.01;100.00;100750.97;4982891;28;20065;-83
2021/08/28 02:30:54;;;;;;;9.63;6.72;;;;;;;12.05;100.00;100752.63;4973206;28;20046;-83
2021/08/28 02:33:22;;;;;;;10.23;6.60;;;;;;;12.06;100.00;100749.94;4980261;28;20046;-84
2021/08/28 02:35:49;;;;;;;11.10;6.93;;;;;;;12.06;100.00;100751.72;4987299;28;20515;-85
2021/08/28 02:38:17;;;;;;;10.98;6.60;;;;;;;12.07;100.00;100743.72;4980423;28;20052;-84
2021/08/28 02:40:46;;;;;;;10.93;7.32;;;;;;;12.09;100.00;100763.09;4986541;28;20050;-83
2021/08/28 02:43:15;;;;;;;11.38;6.60;;;;;;;12.11;100.00;100753.38;4955008;28;20050;-84
2021/08/28 02:45:43;;;;;;;10.52;7.40;;;;;;;12.13;100.00;100753.31;4990810;28;20061;-84
2021/08/28 02:48:10;;;;;;;10.43;7.55;;;;;;;12.13;100.00;100752.44;4978784;28;20062;-84
2021/08/28 02:50:38;;;;;;;14.68;8.35;;;;;;;12.20;100.00;100756.69;4992260;28;20406;-83
2021/08/28 02:53:08;;;;;;;12.45;7.47;;;;;;;12.21;100.00;100755.78;4982465;28;20043;-84
2021/08/28 02:55:36;;;;;;;11.45;6.93;;;;;;;12.21;100.00;100756.63;4995405;28;20076;-83
2021/08/28 02:58:04;;;;;;;10.95;7.25;;;;;;;12.21;100.00;100759.28;4967617;28;20050;-84
2021/08/28 03:00:31;;;;;;;9.88;6.70;;;;;;;12.22;100.00;100761.03;4980811;28;20061;-85
2021/08/28 03:02:58;;;;;;;12.35;7.57;;;;;;;12.35;100.00;100759.78;4969926;28;20558;-83
2021/08/28 03:05:25;;;;;;;10.02;7.25;;;;;;;12.34;100.00;100762.47;4978042;28;20089;-84
2021/08/28 03:07:52;;;;;;;11.48;7.60;;;;;;;12.32;100.00;100764.31;4962484;28;20056;-84
2021/08/28 03:10:19;;;;;;;11.73;7.53;;;;;;;12.36;100.00;100760.69;4978065;28;20524;-83
2021/08/28 03:12:46;;;;;;;10.32;7.30;;;;;;;12.38;100.00;100756.19;4979733;28;20040;-82
2021/08/28 03:15:16;;;;;;;12.13;8.23;;;;;;;12.35;100.00;100761.56;4961767;28;20442;-83
2021/08/28 03:17:43;;;;;;;10.27;6.65;;;;;;;12.37;100.00;100754.47;4983219;28;20092;-82
2021/08/28 03:20:11;;;;;;;10.52;7.15;;;;;;;12.36;100.00;100756.25;4990268;28;20073;-83
2021/08/28 03:22:39;;;;;;;10.40;6.97;;;;;;;12.40;100.00;100757.88;4974511;28;20085;-82
2021/08/28 03:25:06;;;;;;;11.95;8.20;;;;;;;12.38;100.00;100759.72;4977370;28;20517;-84
2021/08/28 03:27:36;;;;;;;12.25;7.45;;;;;;;12.44;100.00;100763.97;4991775;28;20046;-83
2021/08/28 03:30:05;;;;;;;12.32;7.45;;;;;;;12.42;100.00;100757.84;4992926;28;20104;-83
2021/08/28 03:32:32;;;;;;;12.10;7.90;;;;;;;12.51;100.00;100764.69;4997956;28;20096;-82
2021/08/28 03:35:00;;;;;;;11.73;6.80;;;;;;;12.48;100.00;100762.13;4978385;28;20045;-83
2021/08/28 03:37:27;;;;;;;10.63;7.53;;;;;;;12.47;100.00;100763.03;4996670;28;20531;-83
2021/08/28 03:39:54;;;;;;;10.27;6.55;;;;;;;12.49;100.00;100763.84;4993559;28;20065;-84
2021/08/28 03:42:21;;;;;;;9.95;7.30;;;;;;;12.50;100.00;100763.81;4984831;28;20052;-83
2021/08/28 03:44:47;;;;;;;10.68;6.78;;;;;;;12.52;100.00;100764.63;4990650;28;20045;-83
2021/08/28 03:47:15;;;;;;;12.50;8.07;;;;;;;12.58;100.00;100753.88;4990930;28;20096;-83
2021/08/28 03:49:43;;;;;;;12.60;7.95;;;;;;;12.56;100.00;100754.84;4986127;28;20040;-84
2021/08/28 03:52:10;;;;;;;11.88;7.30;;;;;;;12.56;100.00;100758.34;4990773;28;20380;-83
2021/08/28 03:54:37;;;;;;;14.50;8.57;;;;;;;12.60;100.00;100749.41;4985202;28;20037;-83
2021/08/28 03:57:03;;;;;;;11.85;8.25;;;;;;;12.70;100.00;100757.13;4997701;28;20042;-86
2021/08/28 03:59:30;;;;;;;13.77;8.27;;;;;;;12.65;100.00;100760.75;4959672;28;20443;-83
2021/08/28 04:01:59;;;;;;;12.43;8.45;;;;;;;12.71;100.00;100764.16;4993168;28;24209;-83
2021/08/28 04:04:26;;;;;;;10.65;6.80;;;;;;;12.71;100.00;100761.50;5005631;28;20038;-82
2021/08/28 04:06:52;;;;;;;11.80;8.00;;;;;;;12.63;100.00;100767.00;4994247;28;20042;-82
2021/08/28 04:09:19;;;;;;;13.02;8.52;;;;;;;12.63;100.00;100767.88;4976757;28;20049;-83
2021/08/28 04:11:48;;;;;;;15.63;9.82;;;;;;;12.72;100.00;100769.41;4997061;28;20519;-83
2021/08/28 04:14:14;;;;;;;14.98;8.63;;;;;;;12.80;100.00;100771.84;4983128;28;20470;-83
2021/08/28 04:16:41;;;;;;;13.88;7.93;;;;;;;12.76;100.00;100775.50;4993780;28;20029;-82
2021/08/28 04:19:08;;;;;;;13.27;7.93;;;;;;;12.71;100.00;100775.63;4995669;28;20131;-84
2021/08/28 04:21:35;;;;;;;12.77;8.05;;;;;;;12.67;100.00;100777.47;4976127;28;20038;-83
2021/08/28 04:24:01;;;;;;;14.73;8.65;;;;;;;12.64;100.00;100774.91;4969672;28;20499;-84
2021/08/28 04:26:28;;;;;;;15.70;9.00;;;;;;;12.62;100.00;100784.69;4976143;28;20255;-84
2021/08/28 04:28:55;;;;;;;12.82;7.97;;;;;;;12.63;100.00;100782.91;4973633;28;20618;-83
2021/08/28 04:31:23;;;;;;;12.60;7.55;;;;;;;12.64;100.00;100790.81;4997127;28;20049;-84
2021/08/28 04:33:51;;;;;;;12.02;7.32;;;;;;;12.65;100.00;100787.25;4973273;28;20034;-83
2021/08/28 04:36:18;;;;;;;14.32;8.20;;;;;;;12.67;100.00;100782.78;4974849;28;20045;-83
2021/08/28 04:38:44;;;;;;;13.32;8.55;;;;;;;12.78;100.00;100785.16;4987889;28;20116;-82
2021/08/28 04:41:11;;;;;;;12.82;8.25;;;;;;;12.73;100.00;100779.09;4973396;28;20046;-82
2021/08/28 04:43:38;;;;;;;13.55;7.78;;;;;;;12.78;100.00;100789.56;4994458;28;20049;-85
2021/08/28 04:46:05;;;;;;;15.82;9.48;;;;;;;12.74;100.00;100791.44;4984330;28;20054;-85
2021/08/28 04:48:32;;;;;;;15.10;9.27;;;;;;;12.78;100.00;100778.97;4976026;28;20038;-85
2021/08/28 04:50:58;;;;;;;12.70;8.43;;;;;;;12.79;100.00;100775.41;5003557;28;20041;-86
2021/08/28 04:53:25;;;;;;;13.00;8.13;;;;;;;12.80;100.00;100778.03;4972235;28;20135;-83
2021/08/28 04:55:52;;;;;;;16.88;9.98;;;;;;;12.87;100.00;100781.38;4975869;28;20046;-84
2021/08/28 04:58:18;;;;;;;15.70;9.52;;;;;;;12.89;100.00;100776.91;4994657;28;20435;-85
2021/08/28 05:00:45;;;;;;;14.43;8.57;;;;;;;12.87;100.00;100782.25;4974595;28;20045;-85
2021/08/28 05:03:12;;;;;;;14.05;9.23;;;;;;;12.90;100.00;100787.47;4980279;28;20077;-85
2021/08/28 05:05:39;;;;;;;12.93;8.48;;;;;;;12.90;100.00;100786.59;4989630;28;20042;-85
2021/08/28 05:08:05;;;;;;;10.65;7.47;;;;;;;12.88;100.00;100786.63;4985450;28;20045;-83
2021/08/28 05:10:32;;;;;;;15.35;9.07;;;;;;;12.90;100.00;100781.28;4958241;28;20035;-83
2021/08/28 05:12:59;;;;;;;15.88;9.48;;;;;;;12.97;100.00;100788.16;4976579;28;20049;-83
2021/08/28 05:15:25;;;;;;;15.25;9.48;;;;;;;12.99;100.00;100788.97;4961502;28;20045;-83
2021/08/28 05:17:52;;;;;;;11.30;7.80;;;;;;;12.95;100.00;100790.88;4983806;28;20511;-83
2021/08/28 05:20:20;;;;;;;12.77;8.60;;;;;;;12.94;100.00;100790.88;4989670;28;20051;-85
2021/08/28 05:22:47;;;;;;;12.57;7.80;;;;;;;12.95;100.00;100793.50;4995561;28;20079;-85
2021/08/28 05:25:17;;;;;;;12.48;7.75;;;;;;;12.99;100.00;100793.41;4987139;28;20092;-85
2021/08/28 05:27:44;;;;;;;11.50;7.40;;;;;;;13.00;100.00;100795.16;4971572;28;20064;-83
2021/08/28 05:30:14;;;;;;;12.23;7.97;;;;;;;13.02;100.00;100802.13;4975422;28;20502;-82
2021/08/28 05:32:43;;;;;;;13.85;8.00;;;;;;;13.04;100.00;100794.16;4979977;28;20049;-83
2021/08/28 05:35:10;;;;;;;12.63;7.47;;;;;;;13.07;100.00;100799.38;4975822;28;20542;-82
2021/08/28 05:37:37;;;;;;;12.75;8.07;;;;;;;13.06;100.00;100803.81;4978900;28;20407;-83
2021/08/28 05:40:08;;;;;;;11.63;7.70;;;;;;;13.14;100.00;100806.25;4965876;28;20460;-86
2021/08/28 05:42:35;;;;;;;12.32;6.97;;;;;;;13.17;100.00;100795.53;4975316;28;20056;-84
2021/08/28 05:45:02;;;;;;;14.73;8.60;;;;;;;13.29;100.00;100795.22;4947450;28;20062;-83
2021/08/28 05:47:29;;;;;;;11.82;7.80;;;;;;;13.28;100.00;100792.59;4966153;28;20062;-82
2021/08/28 05:49:55;;;;;;;12.65;8.50;;;;;;;13.27;100.00;100791.72;4959493;28;20062;-83
2021/08/28 05:52:22;;;;;;;13.35;8.18;;;;;;;13.30;100.00;100799.63;4972811;28;20045;-84
2021/08/28 05:54:52;;;;;;;13.52;9.00;;;;;;;13.34;100.00;100803.91;4987268;28;20640;-83
2021/08/28 05:57:18;;;;;;;13.88;7.35;;;;;;;13.34;100.00;100803.91;4987621;28;20113;-83
2021/08/28 05:59:45;;;;;;;13.20;9.20;;;;;;;13.43;100.00;100803.63;5008823;28;20511;-82
2021/08/28 06:02:12;;;;;;;14.52;8.23;;;;;;;13.41;100.00;100800.16;4986919;28;20042;-83
2021/08/28 06:04:41;;;;;;;12.68;8.32;;;;;;;13.50;100.00;100801.66;4976116;28;20558;-83
2021/08/28 06:07:08;;;;;;;10.30;6.82;;;;;;;13.45;100.00;100793.84;4990705;28;20100;-82
2021/08/28 06:09:38;;;;;;;14.18;8.80;;;;;;;13.56;100.00;100804.16;5007622;28;20061;-83
2021/08/28 06:12:05;;;;;;;12.38;7.80;;;;;;;13.55;100.00;100807.72;5005677;28;20161;-85
2021/08/28 06:14:32;;;;;;;13.63;8.07;;;;;;;13.54;100.00;100816.59;4963856;28;20084;-84
2021/08/28 06:16:59;;;;;;;12.10;7.57;;;;;;;13.56;100.00;100813.91;4966373;28;20046;-83
2021/08/28 06:19:25;;;;;;;10.45;7.13;;;;;;;13.56;100.00;100812.09;4977297;28;20043;-83
2021/08/28 06:21:52;;;;;;;10.25;7.30;;;;;;;13.60;100.00;100815.53;4975711;28;20042;-84
2021/08/28 06:24:19;;;;;;;11.88;7.32;;;;;;;13.61;100.00;100812.81;4966228;28;20038;-83
2021/08/28 06:26:46;;;;;;;11.45;6.47;;;;;;;13.65;100.00;100817.13;4981998;28;20485;-84
2021/08/28 06:29:13;;;;;;;10.73;6.63;;;;;;;13.71;100.00;100810.78;4982628;28;20057;-85
2021/08/28 06:31:39;;;;;;;9.35;6.15;;;;;;;13.76;100.00;100811.47;5001617;28;20400;-83
2021/08/28 06:34:07;;;;;;;11.85;7.78;;;;;;;13.91;100.00;100818.09;4976303;28;20479;-84
2021/08/28 06:36:34;;;;;;;9.25;6.45;;;;;;;13.89;100.00;100807.53;4975775;28;20054;-85
2021/08/28 06:39:03;;;;;;;9.40;6.35;;;;;;;13.92;100.00;100804.78;4976870;28;20054;-84
2021/08/28 06:41:30;;;;;;;6.85;5.35;;;;;;;13.92;100.00;100804.78;4980421;28;20052;-86
2021/08/28 06:43:56;;;;;;;7.68;5.22;;;;;;;13.93;100.00;100801.19;4985208;28;20053;-87
2021/08/28 06:46:23;;;;;;;9.15;6.30;;;;;;;13.96;100.00;100810.88;4988645;28;20037;-83
2021/08/28 06:48:50;;;;;;;7.95;6.43;;;;;;;13.89;100.00;100810.19;4966642;28;20052;-85
2021/08/28 06:51:17;;;;;;;8.13;5.53;;;;;;;13.92;100.00;100807.44;4996166;28;20722;-84
2021/08/28 06:53:44;;;;;;;7.07;5.18;;;;;;;13.92;100.00;100814.53;4980337;28;20066;-84
2021/08/28 06:56:10;;;;;;;7.32;4.80;;;;;;;13.93;100.00;100808.28;4986921;28;20054;-83
2021/08/28 06:58:37;;;;;;;6.55;5.35;;;;;;;13.94;100.00;100808.25;4988612;28;20081;-83
2021/08/28 07:01:04;;;;;;;5.15;4.25;;;;;;;13.98;100.00;100806.38;5006156;28;20415;-84
2021/08/28 07:03:33;;;;;;;6.30;5.10;;;;;;;14.01;100.00;100807.13;4967773;28;20049;-84
2021/08/28 07:06:01;;;;;;;5.70;4.47;;;;;;;14.09;100.00;100809.53;4994358;28;20053;-84
2021/08/28 07:08:28;;;;;;;7.20;4.55;;;;;;;14.08;100.00;100810.47;4984153;28;20458;-83
2021/08/28 07:10:54;;;;;;;6.70;5.32;;;;;;;14.00;100.00;100813.38;4984079;28;20049;-83
2021/08/28 07:13:22;;;;;;;6.43;4.15;;;;;;;13.97;100.00;100805.50;4990364;28;20049;-83
2021/08/28 07:15:48;;;;;;;5.95;4.35;;;;;;;13.99;100.00;100801.00;4965331;28;20088;-84
2021/08/28 07:18:15;;;;;;;4.72;3.80;;;;;;;14.03;100.00;100802.63;4995606;28;20128;-84
2021/08/28 07:20:42;;;;;;;4.88;3.75;;;;;;;14.11;100.00;100809.47;4977411;28;20041;-83
2021/08/28 07:23:09;;;;;;;6.50;4.80;;;;;;;14.13;100.00;100815.66;4981284;28;20133;-84
2021/08/28 07:25:38;;;;;;;5.28;3.40;;;;;;;14.17;100.00;100818.13;4989664;28;20041;-84
2021/08/28 07:28:09;;;;;;;6.20;4.40;;;;;;;14.16;100.00;100812.88;4980636;28;20069;-82
2021/08/28 07:30:36;;;;;;;5.50;4.63;;;;;;;14.29;100.00;100822.16;4992197;28;20136;-83
2021/08/28 07:33:03;;;;;;;6.53;4.60;;;;;;;14.27;100.00;100826.66;4982962;28;20398;-83
2021/08/28 07:35:31;;;;;;;5.43;4.00;;;;;;;14.31;100.00;100825.66;4980648;28;20129;-84
2021/08/28 07:37:59;;;;;;;6.25;3.92;;;;;;;14.36;100.00;100813.94;4980736;28;20053;-81
2021/08/28 07:40:26;;;;;;;4.55;3.63;;;;;;;14.36;100.00;100818.38;4975904;28;20045;-84
2021/08/28 07:42:54;;;;;;;5.03;4.30;;;;;;;14.30;100.00;100818.63;5002188;28;20099;-87
2021/08/28 07:45:22;;;;;;;5.88;3.97;;;;;;;14.29;100.00;100816.84;4988354;28;20045;-81
2021/08/28 07:47:49;;;;;;;5.60;4.00;;;;;;;14.31;100.00;100815.91;5005915;28;20575;-86
2021/08/28 07:50:16;;;;;;;4.72;3.65;;;;;;;14.36;100.00;100823.69;4962044;28;20642;-85
2021/08/28 07:52:43;;;;;;;5.60;4.00;;;;;;;14.35;100.00;100825.50;4981747;28;20045;-84
2021/08/28 07:55:11;;;;;;;6.43;4.72;;;;;;;14.31;100.00;100826.53;4998075;28;20034;-83
2021/08/28 07:57:38;;;;;;;5.53;3.60;;;;;;;14.38;100.00;100824.53;4999194;28;20046;-85
2021/08/28 08:00:06;;;;;;;4.88;3.65;;;;;;;14.40;100.00;100827.13;4961773;28;20045;-84
2021/08/28 08:02:33;;;;;;;6.97;4.05;;;;;;;14.41;100.00;100827.09;4980885;28;20069;-85
2021/08/28 08:05:00;;;;;;;4.72;3.85;;;;;;;14.67;100.00;100826.22;4992723;28;20042;-84
2021/08/28 08:11:21;;;;;;;4.22;2.88;;;;;;;14.93;100.00;100820.84;4996059;28;20125;-84
2021/08/28 08:13:48;;;;;;;4.90;3.63;;;;;;;15.03;100.00;100832.03;4985893;28;20033;-85
2021/08/28 08:16:14;;;;;;;4.07;3.15;;;;;;;15.22;100.00;100818.94;4997323;28;20048;-85
2021/08/28 08:18:41;;;;;;;4.28;2.80;;;;;;;15.43;99.06;100825.25;4984168;28;20078;-83
2021/08/28 08:21:08;;;;;;;3.60;2.88;;;;;;;15.44;100.00;100827.84;4982143;28;20045;-84
2021/08/28 08:23:34;;;;;;;2.83;2.47;;;;;;;15.59;100.00;100825.53;4987829;28;20053;-84
2021/08/28 08:26:01;;;;;;;3.50;2.67;;;;;;;15.76;100.00;100829.31;5019667;23;20042;-82
2021/08/28 08:28:28;;;;;;;4.82;3.22;;;;;;;15.82;100.00;100832.66;5012412;28;20049;-83
2021/08/28 08:30:54;;;;;;;3.40;2.63;;;;;;;16.00;100.00;100821.28;5003382;28;20037;-83
2021/08/28 08:33:21;;;;;;;4.93;3.08;;;;;;;16.14;95.77;100832.22;5008888;28;20048;-82
2021/08/28 08:35:48;;;;;;;3.33;2.70;;;;;;;16.13;99.46;100824.28;5019023;28;20044;-83
2021/08/28 08:38:15;;;;;;;2.88;2.58;;;;;;;16.03;97.28;100824.66;5021485;28;20037;-82
2021/08/28 08:40:41;;;;;;;3.72;2.92;;;;;;;16.01;100.00;100831.00;5016993;28;20059;-82
2021/08/28 08:43:08;;;;;;;4.43;3.00;;;;;;;16.02;100.00;100846.06;5024188;28;20069;-83
2021/08/28 08:45:35;;;;;;;4.50;3.70;;;;;;;15.73;100.00;100842.75;5002766;28;20044;-81
2021/08/28 08:48:03;;;;;;;3.83;3.17;;;;;;;15.64;99.09;100844.91;5040738;28;20037;-82
2021/08/28 08:50:29;;;;;;;3.58;2.80;;;;;;;15.85;96.97;100843.19;5036055;28;20051;-82
2021/08/28 08:53:02;;;;;;;3.53;2.72;;;;;;;15.93;100.00;100839.28;5017059;28;20075;-82
2021/08/28 08:55:29;;;;;;;4.10;3.03;;;;;;;15.93;100.00;100847.28;5017972;28;20046;-82
2021/08/28 08:58:11;;;;;;;3.70;2.78;;;;;;;15.99;97.93;100836.41;4996811;28;20049;-82
2021/08/28 09:00:38;;;;;;;4.15;3.13;;;;;;;16.05;94.75;100837.91;5030063;28;20531;-82
2021/08/28 09:03:05;;;;;;;2.95;2.65;;;;;;;16.01;96.24;100847.84;5024076;28;20060;-82
2021/08/28 09:05:32;;;;;;;3.45;2.80;;;;;;;16.20;92.40;100847.97;5005364;28;20445;-83
2021/08/28 09:07:58;;;;;;;5.20;3.10;;;;;;;16.20;95.19;100850.63;5003014;28;20545;-83
2021/08/28 09:10:25;;;;;;;3.90;2.80;;;;;;;16.14;91.83;100850.00;5014310;28;20616;-80
2021/08/28 09:12:52;;;;;;;4.03;2.80;;;;;;;16.14;94.25;100848.22;5036218;28;20463;-81
2021/08/28 09:15:19;;;;;;;3.83;2.75;;;;;;;16.26;95.18;100850.41;4996664;28;20041;-83
2021/08/28 09:17:57;;;;;;;3.58;2.90;;;;;;;16.38;94.23;100845.47;5018031;28;20045;-83
2021/08/28 09:20:25;;;;;;;3.35;2.83;;;;;;;16.31;92.91;100843.09;5030451;28;20041;-85
2021/08/28 09:23:13;;;;;;;3.72;2.67;;;;;;;16.45;94.30;100846.97;5012921;28;20572;-85
2021/08/28 09:25:41;;;;;;;4.97;2.97;;;;;;;16.53;92.17;100843.03;5006840;28;20037;-83
2021/08/28 09:28:09;;;;;;;2.72;2.33;;;;;;;16.68;91.13;100846.00;4987819;28;20037;-82
2021/08/28 09:30:42;;;;;;;3.72;3.10;;;;;;;16.86;94.95;100840.75;5014121;28;20048;-82
2021/08/28 09:33:11;;;;;;;3.72;2.95;;;;;;;17.09;92.42;100838.91;5014937;28;20046;-84
2021/08/28 09:35:43;;;;;;;3.45;3.00;;;;;;;17.24;88.06;100840.88;5015791;28;20037;-83
2021/08/28 09:38:15;;;;;;;3.75;2.95;;;;;;;17.20;87.55;100841.94;5018291;28;20095;-82
2021/08/28 09:40:45;;;;;;;3.47;2.65;;;;;;;17.44;90.01;100837.28;4993588;28;20046;-83
2021/08/28 09:43:12;;;;;;;4.85;2.80;;;;;;;17.50;87.20;100831.69;5002872;28;20053;-83
2021/08/28 09:45:39;;;;;;;3.55;2.80;;;;;;;17.64;84.95;100834.53;5012614;28;20037;-82
2021/08/28 09:48:07;;;;;;;3.95;2.80;;;;;;;17.67;84.29;100825.53;5016774;28;20045;-83
2021/08/28 09:50:36;;;;;;;5.35;2.85;;;;;;;17.86;80.25;100826.44;4989632;28;20080;-82
2021/08/28 09:53:26;;;;;;;3.38;2.35;;;;;;;17.90;82.96;100821.78;5017867;28;20103;-83
2021/08/28 09:55:54;;;;;;;3.25;2.67;;;;;;;17.80;80.48;100813.34;4999499;28;20040;-84
2021/08/28 09:58:26;;;;;;;3.65;2.15;;;;;;;17.97;81.20;100818.75;5036280;28;20044;-82
2021/08/28 10:00:59;;;;;;;3.08;2.70;;;;;;;18.21;79.89;100821.16;5017613;28;20048;-82
2021/08/28 10:03:28;;;;;;;3.60;2.90;;;;;;;18.21;82.00;100821.16;5001902;28;20052;-83
2021/08/28 10:05:56;;;;;;;2.92;2.63;;;;;;;18.17;80.48;100815.13;5000205;28;20029;-81
2021/08/28 10:08:23;;;;;;;3.58;2.60;;;;;;;18.33;82.06;100812.53;5032741;28;20045;-82
2021/08/28 10:10:51;;;;;;;4.10;2.97;;;;;;;18.68;77.97;100809.91;5003152;28;20041;-85
2021/08/28 10:13:30;;;;;;;2.78;2.55;;;;;;;18.85;76.51;100812.59;5024488;28;20432;-84
2021/08/28 10:15:57;;;;;;;4.68;2.58;;;;;;;19.08;76.66;100811.34;5003909;28;20075;-83
2021/08/28 10:18:24;;;;;;;3.38;2.67;;;;;;;19.22;75.17;100813.28;4991735;28;20176;-83
2021/08/28 10:20:53;;;;;;;3.10;2.28;;;;;;;19.46;76.92;100816.47;5017560;28;20036;-83
2021/08/28 10:23:22;;;;;;;3.65;3.30;;;;;;;19.25;73.35;100816.66;4999801;28;20106;-83
2021/08/28 10:25:50;;;;;;;5.57;5.07;;;;;;;19.27;72.29;100814.78;5014677;28;20036;-83
2021/08/28 10:28:17;;;;;;;4.10;3.70;;;;;;;19.07;73.83;100821.19;5026377;28;20075;-83
2021/08/28 10:30:45;;;;;;;4.57;2.70;;;;;;;19.12;72.61;100818.28;5037712;28;20055;-83
2021/08/28 10:33:13;;;;;;;3.42;2.50;;;;;;;19.04;73.94;100810.66;5022693;28;20151;-83
2021/08/28 10:35:40;;;;;;;3.38;2.88;;;;;;;19.03;74.44;100816.97;5014031;28;20037;-83
2021/08/28 10:38:07;;;;;;;4.05;2.70;;;;;;;19.13;73.00;100818.19;5028475;28;20132;-85
2021/08/28 10:40:34;;;;;;;2.58;2.35;;;;;;;19.13;72.73;100815.50;5006611;28;20037;-87
2021/08/28 10:43:04;;;;;;;3.13;2.30;;;;;;;19.13;70.01;100810.16;5017178;28;20045;-84
2021/08/28 10:45:38;;;;;;;3.25;2.30;;;;;;;19.06;70.76;100810.56;5013703;28;20041;-87
2021/08/28 10:48:09;;;;;;;3.55;2.45;;;;;;;19.44;68.43;100799.59;5016786;28;20042;-85
2021/08/28 10:50:40;;;;;;;3.50;3.00;;;;;;;19.51;71.27;100796.50;5022028;28;20255;-86
2021/08/28 10:53:09;;;;;;;3.38;2.85;;;;;;;19.27;70.74;100795.16;5018098;28;20033;-84
2021/08/28 10:55:41;;;;;;;2.95;2.30;;;;;;;19.39;71.86;100800.72;5031525;28;20037;-86
2021/08/28 10:58:14;;;;;;;3.33;2.28;;;;;;;19.53;72.75;100801.78;5017509;28;20151;-87
2021/08/28 11:00:42;;;;;;;2.80;2.33;;;;;;;19.73;70.97;100803.38;5017397;28;20418;-83
2021/08/28 11:03:27;;;;;;;4.65;3.03;;;;;;;19.99;72.46;100799.19;5020337;28;20064;-85
2021/08/28 11:06:13;;;;;;;3.58;2.67;;;;;;;20.37;67.83;100791.63;5019944;28;20510;-86
2021/08/28 11:08:50;;;;;;;3.20;2.53;;;;;;;20.41;67.51;100801.22;5015883;28;20080;-85
2021/08/28 11:11:21;;;;;;;3.38;3.08;;;;;;;20.45;67.66;100798.28;5036440;28;20064;-85
2021/08/28 11:14:02;;;;;;;3.08;2.35;;;;;;;20.48;62.77;100794.56;5009235;28;20045;-84
2021/08/28 11:16:43;;;;;;;3.70;2.55;;;;;;;20.35;65.84;100798.91;5009759;28;20045;-85
2021/08/28 11:19:22;;;;;;;2.83;2.47;;;;;;;20.11;63.43;100796.69;5016836;28;20134;-87
2021/08/28 11:21:50;;;;;;;2.85;2.47;;;;;;;20.22;65.61;100790.69;5016066;28;20041;-84
2021/08/28 11:24:22;;;;;;;4.38;2.85;;;;;;;20.40;64.90;100796.78;5018313;28;20044;-84
2021/08/28 11:26:50;;;;;;;3.35;2.63;;;;;;;20.11;63.95;100787.78;5012706;28;20091;-84
2021/08/28 11:29:45;;;;;;;3.38;2.70;;;;;;;19.99;63.73;100792.03;5009182;28;20045;-82